Time;durP1;ratioP1;P1;durP2;ratioP2;P2;SDS_P1;SDS_P2;PMS_P1;PMS_P2;Temp;Humidity;BMP_temperature;BMP_pressure;BME280_temperature;BME280_humidity;BME280_pressure;Samples;Min_cycle;Max_cycle;Signal;HPM_P1;HPM_P2
2021/07/03 00:02:06;;;;;;;22.90;12.50;;;;;;;16.81;84.25;100206.91;4979458;28;20062;-73
2021/07/03 00:04:33;;;;;;;17.20;11.70;;;;;;;16.71;84.94;100201.47;4979042;28;20098;-75
2021/07/03 00:07:00;;;;;;;17.58;12.13;;;;;;;16.69;84.71;100200.75;4978026;28;20074;-74
2021/07/03 00:09:26;;;;;;;18.90;12.65;;;;;;;16.70;84.69;100203.34;4979330;28;20089;-75
2021/07/03 00:11:53;;;;;;;21.40;13.32;;;;;;;16.72;84.37;100202.34;4978986;28;20054;-72
2021/07/03 00:14:20;;;;;;;18.67;12.88;;;;;;;16.68;84.96;100202.59;4978101;28;20109;-73
2021/07/03 00:16:46;;;;;;;17.83;11.85;;;;;;;16.61;85.17;100197.88;4978782;28;20117;-72
2021/07/03 00:19:13;;;;;;;18.60;12.32;;;;;;;16.57;85.02;100194.59;4979374;28;20166;-73
2021/07/03 00:21:40;;;;;;;18.95;12.70;;;;;;;16.55;85.83;100202.81;4999102;28;20073;-73
2021/07/03 00:24:06;;;;;;;19.73;13.70;;;;;;;16.58;85.44;100204.38;4999524;28;20399;-72
2021/07/03 00:26:33;;;;;;;17.48;12.32;;;;;;;16.54;85.31;100200.25;4998700;28;20105;-73
2021/07/03 00:29:00;;;;;;;16.00;11.38;;;;;;;16.51;85.77;100197.81;4998647;28;20124;-71
2021/07/03 00:31:27;;;;;;;17.88;13.35;;;;;;;16.49;85.36;100192.56;4998172;28;20344;-73
2021/07/03 00:33:53;;;;;;;17.63;12.68;;;;;;;16.49;85.42;100195.25;4996737;28;20054;-75
2021/07/03 00:36:20;;;;;;;19.83;12.98;;;;;;;16.49;85.17;100197.06;4998051;28;20093;-73
2021/07/03 00:38:47;;;;;;;20.35;14.68;;;;;;;16.55;84.70;100200.13;4997054;28;20058;-75
2021/07/03 00:41:13;;;;;;;21.98;14.55;;;;;;;16.59;84.28;100194.44;4996871;28;20046;-74
2021/07/03 00:43:40;;;;;;;19.38;13.35;;;;;;;16.52;85.02;100196.81;4997737;28;20054;-74
2021/07/03 00:46:07;;;;;;;18.10;13.02;;;;;;;16.46;84.80;100190.13;4997703;28;20057;-75
2021/07/03 00:48:33;;;;;;;17.92;12.73;;;;;;;16.47;84.83;100205.31;4997848;28;20124;-73
2021/07/03 00:51:00;;;;;;;17.23;13.20;;;;;;;16.53;84.44;100198.53;4997917;28;20108;-73
2021/07/03 00:53:27;;;;;;;21.80;14.23;;;;;;;16.46;85.01;100198.22;4997899;28;20650;-74
2021/07/03 00:55:54;;;;;;;19.13;13.43;;;;;;;16.47;84.87;100190.97;4997613;28;20050;-72
2021/07/03 00:58:21;;;;;;;19.00;13.05;;;;;;;16.34;85.59;100189.31;4997518;28;20124;-73
2021/07/03 01:00:48;;;;;;;17.17;12.77;;;;;;;16.36;85.68;100197.28;4997588;28;20050;-72
2021/07/03 01:03:14;;;;;;;20.67;13.20;;;;;;;16.31;85.83;100194.97;4997191;28;20333;-72
2021/07/03 01:05:41;;;;;;;17.27;12.10;;;;;;;16.23;86.31;100194.78;4997987;28;20042;-73
2021/07/03 01:08:08;;;;;;;21.83;12.40;;;;;;;16.18;86.68;100188.94;4996582;28;20054;-73
2021/07/03 01:10:35;;;;;;;22.33;12.32;;;;;;;16.14;86.47;100185.63;4997626;28;20129;-72
2021/07/03 01:13:02;;;;;;;22.80;13.43;;;;;;;16.08;87.19;100183.47;4996436;28;20050;-73
2021/07/03 01:15:29;;;;;;;17.23;12.95;;;;;;;15.97;87.78;100177.13;4995963;28;20081;-72
2021/07/03 01:17:55;;;;;;;19.27;11.85;;;;;;;15.87;87.88;100168.94;4995986;28;20444;-72
2021/07/03 01:20:22;;;;;;;18.50;12.63;;;;;;;15.94;87.89;100171.16;4987432;28;20348;-73
2021/07/03 01:22:49;;;;;;;18.00;11.98;;;;;;;15.82;88.43;100171.19;4977565;28;20055;-73
2021/07/03 01:25:17;;;;;;;17.10;12.30;;;;;;;15.82;88.84;100173.88;4977498;28;20352;-72
2021/07/03 01:28:05;;;;;;;16.65;12.77;;;;;;;15.81;88.46;100174.84;4977697;28;20050;-73
2021/07/03 01:30:32;;;;;;;23.02;11.98;;;;;;;15.78;88.82;100171.53;4977513;28;20449;-73
2021/07/03 01:32:59;;;;;;;14.68;11.27;;;;;;;15.80;88.36;100173.13;4977330;28;20503;-73
2021/07/03 01:35:30;;;;;;;19.25;11.90;;;;;;;15.84;88.14;100181.78;4976516;28;20054;-73
2021/07/03 01:37:58;;;;;;;17.95;11.50;;;;;;;15.82;87.81;100178.38;4977289;28;20408;-73
2021/07/03 01:40:25;;;;;;;18.92;12.50;;;;;;;15.80;87.48;100175.81;4977571;28;20054;-73
2021/07/03 01:42:51;;;;;;;17.65;11.80;;;;;;;15.88;87.19;100188.66;4976171;28;20051;-73
2021/07/03 01:45:18;;;;;;;17.58;11.55;;;;;;;15.78;87.66;100183.16;4976506;28;20109;-73
2021/07/03 01:47:46;;;;;;;14.05;11.02;;;;;;;15.75;87.90;100183.44;4976398;28;20055;-73
2021/07/03 01:50:13;;;;;;;14.25;10.82;;;;;;;15.71;88.23;100180.16;4976741;28;20058;-73
2021/07/03 01:52:40;;;;;;;17.63;11.35;;;;;;;15.65;88.53;100183.34;4977257;28;20058;-72
2021/07/03 01:55:12;;;;;;;15.98;11.48;;;;;;;15.57;88.84;100183.09;4975858;28;20166;-73
2021/07/03 01:57:38;;;;;;;19.33;11.60;;;;;;;15.51;89.11;100187.16;4977248;28;20421;-72
2021/07/03 02:00:10;;;;;;;17.20;10.90;;;;;;;15.43;89.56;100184.22;4977098;28;20105;-72
2021/07/03 02:02:37;;;;;;;18.17;11.23;;;;;;;15.41;89.66;100180.81;4975830;28;20432;-72
2021/07/03 02:05:06;;;;;;;16.83;11.13;;;;;;;15.40;89.83;100184.47;4977023;28;20047;-72
2021/07/03 02:07:32;;;;;;;19.60;10.85;;;;;;;15.33;90.04;100171.53;4976801;28;20110;-72
2021/07/03 02:10:00;;;;;;;18.02;10.95;;;;;;;15.28;90.15;100171.06;4976962;28;20109;-72
2021/07/03 02:12:27;;;;;;;14.88;10.73;;;;;;;15.19;90.45;100155.66;4975818;28;20050;-72
2021/07/03 02:14:53;;;;;;;16.55;10.43;;;;;;;15.21;90.46;100159.09;4975322;28;20113;-72
2021/07/03 02:17:20;;;;;;;15.70;10.73;;;;;;;15.21;90.28;100156.41;4976639;28;20508;-72
2021/07/03 02:19:47;;;;;;;12.57;9.93;;;;;;;15.20;90.59;100160.06;4980731;28;20073;-72
2021/07/03 02:22:13;;;;;;;15.85;11.77;;;;;;;15.14;90.93;100158.72;4996256;28;20054;-72
2021/07/03 02:24:40;;;;;;;17.60;11.18;;;;;;;15.16;90.75;100151.38;4996096;28;20108;-72
2021/07/03 02:27:07;;;;;;;17.80;10.98;;;;;;;15.13;90.85;100153.44;4995956;28;20093;-73
2021/07/03 02:29:33;;;;;;;14.73;11.55;;;;;;;15.14;90.83;100147.13;4996219;28;20050;-72
2021/07/03 02:32:00;;;;;;;17.38;11.18;;;;;;;15.11;91.25;100152.72;4995896;28;20348;-72
2021/07/03 02:34:27;;;;;;;16.52;10.68;;;;;;;14.99;91.42;100149.19;4995928;28;20046;-72
2021/07/03 02:36:54;;;;;;;13.93;10.93;;;;;;;15.07;91.13;100150.31;4995755;28;20046;-72
2021/07/03 02:39:20;;;;;;;15.55;10.20;;;;;;;15.04;91.30;100134.41;4994579;28;20054;-72
2021/07/03 02:41:47;;;;;;;15.10;11.40;;;;;;;15.03;91.25;100150.69;4995820;28;20116;-72
2021/07/03 02:44:14;;;;;;;14.43;10.85;;;;;;;14.98;91.63;100139.44;4994661;28;20104;-73
2021/07/03 02:46:41;;;;;;;14.30;10.00;;;;;;;14.94;91.55;100136.13;4995648;28;20050;-72
2021/07/03 02:49:07;;;;;;;13.40;9.48;;;;;;;14.97;91.79;100133.19;4995958;28;20050;-72
2021/07/03 02:51:34;;;;;;;18.85;10.18;;;;;;;14.98;91.61;100137.59;4994803;28;20142;-73
2021/07/03 02:54:01;;;;;;;14.02;9.23;;;;;;;14.93;91.91;100134.44;4995547;28;20054;-73
2021/07/03 02:56:27;;;;;;;16.83;9.85;;;;;;;14.88;92.06;100136.63;4995799;28;20117;-73
2021/07/03 02:58:54;;;;;;;12.40;9.63;;;;;;;14.80;92.44;100124.66;4995526;28;20054;-73
2021/07/03 03:01:21;;;;;;;17.15;9.65;;;;;;;14.93;91.85;100134.44;4995743;28;20058;-72
2021/07/03 03:03:47;;;;;;;17.83;10.50;;;;;;;14.90;91.44;100131.97;4995435;28;20046;-73
2021/07/03 03:06:14;;;;;;;18.00;10.68;;;;;;;14.90;91.60;100134.66;4995489;28;20046;-73
2021/07/03 03:08:41;;;;;;;18.05;10.05;;;;;;;14.91;91.84;100131.00;4995377;28;20077;-73
2021/07/03 03:11:08;;;;;;;17.70;10.73;;;;;;;14.95;91.97;100135.16;4995433;28;20057;-73
2021/07/03 03:13:35;;;;;;;17.63;9.88;;;;;;;14.95;92.28;100121.72;4995422;28;20340;-72
2021/07/03 03:16:02;;;;;;;14.90;9.68;;;;;;;14.86;91.96;100111.72;4995259;28;20364;-72
2021/07/03 03:18:29;;;;;;;13.23;9.85;;;;;;;15.03;91.63;100130.00;4995724;28;20050;-73
2021/07/03 03:20:56;;;;;;;14.00;9.93;;;;;;;15.00;91.52;100124.03;4982213;28;20093;-72
2021/07/03 03:23:22;;;;;;;14.60;9.18;;;;;;;15.09;91.55;100133.19;4976207;28;20086;-72
2021/07/03 03:25:49;;;;;;;13.27;9.77;;;;;;;15.09;91.75;100134.03;4975802;28;20050;-73
2021/07/03 03:28:16;;;;;;;14.68;9.85;;;;;;;15.13;91.17;100129.25;4979386;28;20047;-72
2021/07/03 03:30:42;;;;;;;15.68;10.23;;;;;;;15.15;91.52;100124.63;4980083;28;20058;-72
2021/07/03 03:33:09;;;;;;;16.73;10.07;;;;;;;15.13;91.85;100130.13;4979877;28;20051;-72
2021/07/03 03:35:36;;;;;;;18.38;10.38;;;;;;;15.07;92.15;100127.94;4979402;28;20050;-73
2021/07/03 03:38:03;;;;;;;15.25;10.07;;;;;;;15.01;92.26;100109.63;4978603;28;20050;-73
2021/07/03 03:40:29;;;;;;;14.10;10.10;;;;;;;15.08;92.38;100121.56;4978580;28;20122;-72
2021/07/03 03:42:56;;;;;;;14.27;9.32;;;;;;;15.06;92.60;100113.66;4979679;28;20058;-72
2021/07/03 03:45:23;;;;;;;12.63;9.68;;;;;;;15.03;92.28;100116.56;4979330;28;20054;-72
2021/07/03 03:47:50;;;;;;;14.38;9.25;;;;;;;15.01;92.31;100110.47;4979521;28;20051;-73
2021/07/03 03:50:17;;;;;;;19.05;9.27;;;;;;;15.01;92.51;100112.28;4979455;28;20058;-73
2021/07/03 03:52:43;;;;;;;15.52;9.77;;;;;;;14.99;92.19;100116.94;4979412;28;20046;-72
2021/07/03 03:55:10;;;;;;;14.15;8.50;;;;;;;15.00;92.45;100115.97;4979319;28;20054;-72
2021/07/03 03:57:37;;;;;;;12.63;9.25;;;;;;;15.02;91.81;100103.25;4978157;28;20109;-72
2021/07/03 04:00:07;;;;;;;11.98;8.80;;;;;;;15.02;91.84;100114.00;4979075;28;20055;-72
2021/07/03 04:02:33;;;;;;;10.50;8.93;;;;;;;14.99;92.00;100107.03;4979284;28;20117;-72
2021/07/03 04:05:00;;;;;;;14.40;9.20;;;;;;;14.93;91.84;100100.34;4979140;28;20051;-73
2021/07/03 04:07:27;;;;;;;14.65;9.20;;;;;;;14.90;92.13;100100.59;4979341;28;20126;-72
2021/07/03 04:09:53;;;;;;;13.82;9.07;;;;;;;14.92;92.46;100106.69;4978956;28;20050;-72
2021/07/03 04:12:20;;;;;;;11.43;8.82;;;;;;;14.92;92.26;100109.38;4978120;28;20051;-72
2021/07/03 04:14:48;;;;;;;11.68;8.55;;;;;;;14.88;92.18;100101.69;4979145;28;20051;-73
2021/07/03 04:17:15;;;;;;;12.02;8.50;;;;;;;14.92;92.27;100108.50;4979992;28;20110;-72
2021/07/03 04:19:42;;;;;;;14.18;8.80;;;;;;;14.92;91.93;100098.63;4981849;28;20099;-72
2021/07/03 04:22:14;;;;;;;12.13;9.55;;;;;;;14.95;91.61;100105.59;5000328;28;20088;-72
2021/07/03 04:24:41;;;;;;;12.07;8.95;;;;;;;14.97;92.01;100100.09;4998242;28;20054;-72
2021/07/03 04:27:07;;;;;;;16.42;9.32;;;;;;;14.97;91.98;100103.63;4998305;28;20082;-72
2021/07/03 04:29:34;;;;;;;10.50;8.80;;;;;;;14.92;92.08;100095.94;4998675;28;20049;-72
2021/07/03 04:32:02;;;;;;;12.98;9.23;;;;;;;14.94;92.41;100109.25;4998235;28;20050;-72
2021/07/03 04:34:29;;;;;;;13.63;9.38;;;;;;;14.92;92.41;100111.19;4997253;28;20124;-72
2021/07/03 04:36:57;;;;;;;11.57;9.02;;;;;;;14.95;92.66;100110.97;4997935;28;20054;-73
2021/07/03 04:39:24;;;;;;;14.23;9.25;;;;;;;14.99;91.98;100114.25;4996876;28;20390;-72
2021/07/03 04:41:52;;;;;;;11.82;8.85;;;;;;;14.96;92.13;100120.75;4996813;28;20062;-72
2021/07/03 04:44:19;;;;;;;15.30;8.32;;;;;;;15.01;92.17;100125.72;4996713;28;20392;-72
2021/07/03 04:46:47;;;;;;;10.05;8.35;;;;;;;15.03;92.08;100113.88;4980635;28;20120;-73
2021/07/03 04:49:15;;;;;;;11.70;9.45;;;;;;;15.06;92.66;100116.34;4997978;28;20054;-73
2021/07/03 04:51:41;;;;;;;15.00;8.90;;;;;;;15.11;92.69;100107.03;4997929;28;20707;-72
2021/07/03 04:54:09;;;;;;;11.75;8.80;;;;;;;15.17;92.51;100110.09;4997883;28;20050;-72
2021/07/03 04:56:36;;;;;;;11.10;8.07;;;;;;;15.17;92.59;100114.59;4997601;28;20105;-72
2021/07/03 04:59:02;;;;;;;12.60;8.52;;;;;;;15.25;92.30;100112.13;4997631;28;20057;-73
2021/07/03 05:01:29;;;;;;;13.18;8.93;;;;;;;15.27;92.30;100112.88;4997664;28;20344;-73
2021/07/03 05:03:56;;;;;;;13.30;9.02;;;;;;;15.34;92.29;100114.09;4997774;28;20061;-73
2021/07/03 05:06:22;;;;;;;10.88;8.82;;;;;;;15.37;92.20;100104.06;4997646;28;20105;-73
2021/07/03 05:08:49;;;;;;;12.70;8.15;;;;;;;15.48;91.54;100114.78;4997480;28;20050;-72
2021/07/03 05:11:16;;;;;;;10.35;8.40;;;;;;;15.64;90.15;100116.19;4996351;28;20054;-72
2021/07/03 05:13:43;;;;;;;9.52;8.32;;;;;;;15.74;88.74;100111.75;4997227;28;20109;-72
2021/07/03 05:16:09;;;;;;;9.20;8.00;;;;;;;15.87;87.71;100117.81;4997055;28;20125;-72
2021/07/03 05:18:36;;;;;;;12.90;7.68;;;;;;;15.93;87.12;100110.22;4997445;28;20050;-73
2021/07/03 05:21:03;;;;;;;12.73;7.68;;;;;;;15.98;88.77;100108.00;4983256;28;20058;-71
2021/07/03 05:23:30;;;;;;;13.63;8.30;;;;;;;16.11;85.89;100114.06;4977800;28;20097;-72
2021/07/03 05:25:57;;;;;;;11.18;8.07;;;;;;;16.17;85.55;100111.84;4977964;28;20388;-72
2021/07/03 05:28:25;;;;;;;10.85;7.88;;;;;;;16.22;87.70;100115.81;4977460;28;20061;-72
2021/07/03 05:30:52;;;;;;;11.23;8.10;;;;;;;16.26;86.80;100119.09;4977694;28;20050;-72
2021/07/03 05:33:19;;;;;;;10.55;8.25;;;;;;;16.27;85.04;100097.44;4976670;28;20129;-72
2021/07/03 05:35:46;;;;;;;9.45;7.95;;;;;;;16.46;84.73;100106.63;4977487;28;20054;-72
2021/07/03 05:38:13;;;;;;;10.20;7.43;;;;;;;16.47;84.94;100100.25;4976555;28;20101;-72
2021/07/03 05:40:40;;;;;;;9.38;7.38;;;;;;;16.51;85.89;100098.97;4977460;28;20058;-72
2021/07/03 05:43:06;;;;;;;10.38;8.10;;;;;;;16.52;83.35;100073.75;4976212;28;20050;-72
2021/07/03 05:45:33;;;;;;;12.75;7.85;;;;;;;16.74;83.19;100095.25;4989804;28;20399;-72
2021/07/03 05:48:00;;;;;;;12.25;7.35;;;;;;;16.67;82.75;100074.25;4996646;28;20061;-76
2021/07/03 05:50:30;;;;;;;11.30;7.20;;;;;;;16.91;81.98;100089.22;4996593;28;20074;-76
2021/07/03 05:52:57;;;;;;;10.80;7.22;;;;;;;16.97;83.12;100094.06;4995834;28;20061;-72
2021/07/03 05:55:24;;;;;;;10.70;7.60;;;;;;;16.95;82.63;100092.50;4997630;28;20054;-77
2021/07/03 05:57:51;;;;;;;7.35;6.57;;;;;;;17.00;81.26;100071.34;4969717;28;20507;-72
2021/07/03 06:00:23;;;;;;;14.30;7.18;;;;;;;17.13;81.29;100081.94;4985754;28;20065;-72
2021/07/03 06:02:51;;;;;;;11.25;7.13;;;;;;;17.22;81.72;100088.34;4987395;28;20431;-70
2021/07/03 06:05:20;;;;;;;9.88;6.88;;;;;;;17.20;82.71;100091.19;4987777;28;20053;-71
2021/07/03 06:07:46;;;;;;;7.57;6.55;;;;;;;17.28;81.31;100093.19;4987898;28;20475;-74
2021/07/03 06:10:13;;;;;;;10.68;7.32;;;;;;;17.27;82.03;100087.94;4987671;28;20058;-72
2021/07/03 06:12:40;;;;;;;11.18;7.95;;;;;;;17.34;81.76;100086.38;4983988;28;20392;-71
2021/07/03 06:15:11;;;;;;;11.07;6.65;;;;;;;17.34;82.42;100080.97;4985198;28;20055;-71
2021/07/03 06:17:38;;;;;;;8.23;6.80;;;;;;;17.43;82.02;100082.81;4984975;28;20105;-71
2021/07/03 06:20:06;;;;;;;8.75;6.43;;;;;;;17.54;81.39;100087.22;4986934;28;20051;-70
2021/07/03 06:22:33;;;;;;;8.73;6.45;;;;;;;17.67;81.78;100086.97;4987766;28;20325;-73
2021/07/03 06:25:00;;;;;;;8.63;6.82;;;;;;;17.69;82.17;100087.69;4986548;28;20069;-73
2021/07/03 06:27:27;;;;;;;10.13;7.78;;;;;;;17.71;81.44;100077.56;4984693;28;20042;-71
2021/07/03 06:29:54;;;;;;;8.98;6.68;;;;;;;17.80;80.75;100073.19;4990127;28;20089;-72
2021/07/03 06:32:26;;;;;;;7.97;6.40;;;;;;;17.89;81.25;100080.44;4987417;28;20073;-79
2021/07/03 06:34:55;;;;;;;9.10;6.53;;;;;;;17.99;79.99;100075.03;4991110;28;20505;-77
2021/07/03 06:37:22;;;;;;;8.20;6.00;;;;;;;18.11;78.68;100064.94;5010469;28;20046;-79
2021/07/03 06:39:50;;;;;;;10.02;6.57;;;;;;;18.26;79.14;100068.00;4990866;28;20042;-77
2021/07/03 06:42:17;;;;;;;10.63;6.45;;;;;;;18.30;79.36;100077.53;4986318;28;20046;-75
2021/07/03 06:44:46;;;;;;;11.18;6.45;;;;;;;18.38;78.74;100074.13;4986328;28;20054;-76
2021/07/03 06:47:13;;;;;;;7.97;6.32;;;;;;;18.41;79.12;100081.06;4983131;28;20050;-77
2021/07/03 06:49:41;;;;;;;8.32;6.20;;;;;;;18.36;78.36;100067.16;4984924;28;20066;-78
2021/07/03 06:52:09;;;;;;;7.63;5.93;;;;;;;18.46;78.11;100066.13;4985624;28;20050;-76
2021/07/03 06:54:41;;;;;;;9.23;5.80;;;;;;;18.68;77.11;100074.00;4986595;28;20120;-75
2021/07/03 06:57:09;;;;;;;9.77;6.10;;;;;;;18.65;78.50;100087.81;4985877;28;20054;-75
2021/07/03 06:59:36;;;;;;;7.75;6.20;;;;;;;18.66;79.49;100082.25;4984534;28;20114;-76
2021/07/03 07:02:03;;;;;;;8.82;5.60;;;;;;;18.77;78.62;100073.09;4984330;28;20046;-75
2021/07/03 07:04:30;;;;;;;9.90;6.43;;;;;;;18.78;78.17;100073.97;4990015;28;20349;-74
2021/07/03 07:06:57;;;;;;;8.05;5.95;;;;;;;18.84;77.92;100076.91;4988185;28;20416;-73
2021/07/03 07:09:25;;;;;;;7.03;5.80;;;;;;;18.80;78.12;100070.09;4989587;28;20050;-76
2021/07/03 07:11:54;;;;;;;10.82;6.20;;;;;;;18.95;77.33;100075.84;4986444;28;20058;-74
2021/07/03 07:14:20;;;;;;;8.50;6.18;;;;;;;19.00;77.83;100075.41;4988070;28;20322;-74
2021/07/03 07:16:47;;;;;;;6.78;5.93;;;;;;;19.09;77.96;100077.25;4986579;28;20061;-71
2021/07/03 07:19:14;;;;;;;9.13;5.90;;;;;;;19.20;75.53;100067.19;4990277;28;20060;-77
2021/07/03 07:21:41;;;;;;;7.50;6.03;;;;;;;19.30;75.83;100081.53;4990445;28;20376;-75
2021/07/03 07:24:08;;;;;;;7.13;5.53;;;;;;;19.34;75.25;100080.19;4988497;28;20184;-71
2021/07/03 07:26:35;;;;;;;6.03;5.30;;;;;;;19.40;75.83;100073.34;4988311;28;20122;-72
2021/07/03 07:29:02;;;;;;;9.07;6.55;;;;;;;19.39;76.67;100061.66;4990174;28;20046;-74
2021/07/03 07:31:29;;;;;;;5.85;5.25;;;;;;;19.45;74.41;100056.63;4988902;28;20375;-74
2021/07/03 07:33:56;;;;;;;9.43;5.60;;;;;;;19.48;75.52;100068.00;4987597;28;20146;-73
2021/07/03 07:36:23;;;;;;;8.18;5.85;;;;;;;19.49;76.22;100061.59;4986293;28;20063;-75
2021/07/03 07:38:50;;;;;;;6.97;5.20;;;;;;;19.61;73.91;100064.06;4987917;28;20053;-74
2021/07/03 07:41:17;;;;;;;7.65;4.93;;;;;;;19.78;71.68;100060.47;4987646;28;20101;-72
2021/07/03 07:43:43;;;;;;;6.72;5.22;;;;;;;19.73;71.98;100056.53;4987839;28;20105;-71
2021/07/03 07:46:11;;;;;;;6.55;4.93;;;;;;;19.84;70.50;100072.56;4989514;28;20050;-73
2021/07/03 07:48:38;;;;;;;8.00;5.03;;;;;;;19.95;70.41;100066.91;4987120;28;20046;-73
2021/07/03 07:51:05;;;;;;;6.32;5.03;;;;;;;20.06;69.56;100076.63;4991914;28;20376;-77
2021/07/03 07:53:32;;;;;;;7.65;4.97;;;;;;;20.03;68.57;100073.38;4987644;28;20146;-74
2021/07/03 07:55:59;;;;;;;8.98;5.68;;;;;;;20.05;68.38;100072.22;4989897;28;20154;-75
2021/07/03 07:58:26;;;;;;;6.90;5.07;;;;;;;20.38;67.91;100076.19;4988387;28;20169;-76
2021/07/03 08:00:53;;;;;;;7.38;5.03;;;;;;;20.23;67.76;100071.34;4986007;28;20050;-74
2021/07/03 08:03:20;;;;;;;7.07;5.05;;;;;;;20.19;69.53;100081.66;4995822;28;20050;-76
2021/07/03 08:05:47;;;;;;;9.57;5.00;;;;;;;20.31;66.93;100075.94;4992828;28;20455;-75
2021/07/03 08:08:14;;;;;;;5.97;4.50;;;;;;;20.52;65.10;100069.31;4988453;28;20046;-79
2021/07/03 08:10:42;;;;;;;5.18;3.78;;;;;;;20.66;61.76;100071.44;4987266;28;20762;-74
2021/07/03 08:13:09;;;;;;;4.50;3.38;;;;;;;20.63;62.85;100069.03;4988233;28;20047;-84
2021/07/03 08:15:36;;;;;;;5.28;4.05;;;;;;;20.62;64.83;100070.03;4989894;28;20054;-77
2021/07/03 08:18:04;;;;;;;4.82;3.95;;;;;;;20.76;65.03;100061.28;4987732;28;20043;-74
2021/07/03 08:20:33;;;;;;;6.40;3.85;;;;;;;20.75;65.22;100064.16;4987177;28;20055;-75
2021/07/03 08:23:01;;;;;;;6.57;3.75;;;;;;;20.80;64.09;100067.22;4986108;28;20050;-75
2021/07/03 08:25:28;;;;;;;4.93;3.90;;;;;;;20.94;62.99;100051.38;4988228;28;20411;-73
2021/07/03 08:27:56;;;;;;;7.25;3.90;;;;;;;21.05;60.96;100052.94;4988112;28;20042;-72
2021/07/03 08:30:23;;;;;;;5.20;3.38;;;;;;;21.13;62.65;100061.13;4979380;28;20097;-77
2021/07/03 08:32:52;;;;;;;6.45;3.70;;;;;;;21.24;60.07;100062.69;4985270;28;20050;-77
2021/07/03 08:35:19;;;;;;;5.32;3.95;;;;;;;21.34;59.63;100060.63;4990772;28;20077;-78
2021/07/03 08:37:46;;;;;;;4.38;3.85;;;;;;;21.38;62.64;100053.88;4986611;28;20042;-70
2021/07/03 08:40:14;;;;;;;6.25;3.78;;;;;;;21.36;61.13;100055.06;4983008;28;20047;-74
2021/07/03 08:42:41;;;;;;;5.55;4.10;;;;;;;21.44;60.83;100063.22;4981378;28;20050;-71
2021/07/03 08:45:10;;;;;;;7.82;3.78;;;;;;;21.40;61.04;100045.53;4980069;28;20505;-78
2021/07/03 08:47:42;;;;;;;8.27;3.83;;;;;;;21.53;59.68;100061.34;4983822;28;20118;-78
2021/07/03 08:50:12;;;;;;;6.20;3.97;;;;;;;21.65;60.23;100059.16;4997845;28;20054;-77
2021/07/03 08:52:38;;;;;;;5.40;4.40;;;;;;;21.71;59.16;100069.38;4997666;28;20100;-78
2021/07/03 08:55:05;;;;;;;6.32;4.47;;;;;;;21.81;57.16;100051.06;4997449;28;20432;-81
2021/07/03 08:57:46;;;;;;;7.50;3.88;;;;;;;21.93;58.58;100050.69;4997644;28;20081;-78
2021/07/03 09:00:15;;;;;;;7.85;4.43;;;;;;;22.01;57.30;100047.13;4997854;28;20109;-83
2021/07/03 09:02:43;;;;;;;5.07;4.13;;;;;;;22.14;59.38;100052.88;4995873;28;20054;-78
2021/07/03 09:05:21;;;;;;;5.25;3.90;;;;;;;22.32;57.80;100043.66;4996822;28;20081;-78
2021/07/03 09:07:49;;;;;;;5.35;3.75;;;;;;;22.55;56.30;100042.97;4996991;28;20511;-79
2021/07/03 09:10:22;;;;;;;5.53;3.78;;;;;;;22.62;57.79;100023.00;4996984;28;20054;-77
2021/07/03 09:12:51;;;;;;;4.93;3.95;;;;;;;22.95;57.10;100037.50;4997052;28;20050;-76
2021/07/03 09:15:21;;;;;;;5.10;3.67;;;;;;;23.13;56.65;100045.38;4997038;28;20074;-77
2021/07/03 09:17:55;;;;;;;6.43;4.10;;;;;;;23.12;58.12;100044.56;4997459;28;20046;-77
2021/07/03 09:20:24;;;;;;;5.80;4.13;;;;;;;23.33;55.42;100045.81;4988445;28;20143;-77
2021/07/03 09:22:57;;;;;;;4.47;3.50;;;;;;;23.37;52.67;100049.03;4977731;28;20065;-69
2021/07/03 09:25:24;;;;;;;4.82;3.97;;;;;;;23.29;53.75;100049.88;4993998;28;20104;-79
2021/07/03 09:27:50;;;;;;;5.18;3.88;;;;;;;23.25;55.79;100026.78;4997069;28;20065;-77
2021/07/03 09:30:20;;;;;;;5.43;3.60;;;;;;;23.60;54.18;100047.13;4995953;28;20069;-74
2021/07/03 09:32:51;;;;;;;6.43;3.88;;;;;;;23.55;54.32;100051.44;4990953;28;20049;-76
2021/07/03 09:35:18;;;;;;;4.78;3.80;;;;;;;23.62;54.16;100041.50;4976153;28;20055;-76
2021/07/03 09:37:46;;;;;;;4.18;3.75;;;;;;;23.85;52.54;100044.22;4977515;28;20050;-74
2021/07/03 09:40:13;;;;;;;8.07;3.80;;;;;;;23.82;51.52;100036.44;4989047;28;20050;-75
2021/07/03 09:42:41;;;;;;;5.43;3.45;;;;;;;23.83;52.28;100046.28;4982753;28;20141;-74
2021/07/03 09:45:11;;;;;;;5.60;3.63;;;;;;;24.01;52.85;100054.13;4977169;28;20058;-80
2021/07/03 09:47:37;;;;;;;8.93;3.92;;;;;;;24.05;51.09;100048.28;4977265;28;20047;-77
2021/07/03 09:50:09;;;;;;;7.93;3.67;;;;;;;24.01;52.71;100043.22;4977037;28;20065;-76
2021/07/03 09:52:37;;;;;;;6.05;3.67;;;;;;;24.00;55.03;100046.13;4983469;28;20105;-78
2021/07/03 09:55:07;;;;;;;8.80;3.90;;;;;;;24.01;55.57;100036.91;4996943;28;20154;-76
2021/07/03 09:57:39;;;;;;;4.90;3.72;;;;;;;24.01;53.05;100031.47;4981693;28;20042;-78
2021/07/03 10:00:10;;;;;;;4.78;4.00;;;;;;;24.11;53.61;100036.69;4986388;28;20050;-74
2021/07/03 10:02:44;;;;;;;5.43;4.00;;;;;;;23.86;55.52;100039.63;4988251;28;20054;-70
2021/07/03 10:05:12;;;;;;;5.30;3.88;;;;;;;23.88;56.49;100038.38;4985339;28;20050;-70
2021/07/03 10:07:42;;;;;;;5.47;4.20;;;;;;;23.69;55.78;100030.75;4985870;28;20043;-69
2021/07/03 10:10:29;;;;;;;7.57;4.18;;;;;;;23.71;54.60;100040.41;4984082;28;20136;-73
2021/07/03 10:13:10;;;;;;;7.15;4.07;;;;;;;23.74;55.81;100037.34;4985610;28;20104;-71
2021/07/03 10:15:40;;;;;;;5.57;4.47;;;;;;;23.77;55.66;100036.13;4987798;28;20068;-71
2021/07/03 10:18:07;;;;;;;8.32;4.30;;;;;;;23.70;54.25;100035.16;4985142;28;20060;-70
2021/07/03 10:20:34;;;;;;;5.78;3.88;;;;;;;23.79;55.00;100033.22;4987258;28;20454;-70
2021/07/03 10:23:01;;;;;;;5.38;4.05;;;;;;;23.86;54.33;100034.19;4985860;28;20046;-72
2021/07/03 10:25:38;;;;;;;5.90;4.60;;;;;;;23.86;56.94;100034.19;4985028;28;20425;-71
2021/07/03 10:28:08;;;;;;;5.03;3.92;;;;;;;23.94;56.80;100028.66;4990395;28;20050;-72
2021/07/03 10:30:38;;;;;;;8.00;4.50;;;;;;;24.13;53.92;100026.44;4995788;28;20148;-71
2021/07/03 10:33:16;;;;;;;8.03;4.03;;;;;;;24.20;55.69;100030.13;4995661;28;20050;-71
2021/07/03 10:35:48;;;;;;;4.75;3.90;;;;;;;24.19;57.04;100025.69;4995825;28;20284;-70
2021/07/03 10:38:23;;;;;;;8.75;4.43;;;;;;;24.37;56.60;100019.88;4995848;28;20101;-72
2021/07/03 10:40:59;;;;;;;7.93;4.10;;;;;;;24.45;55.90;100010.72;4995604;28;20154;-71
2021/07/03 10:43:26;;;;;;;8.50;4.57;;;;;;;24.51;51.30;100001.78;4995545;28;20060;-72
2021/07/03 10:45:55;;;;;;;6.28;3.83;;;;;;;24.57;51.69;99999.34;4995517;28;20352;-71
2021/07/03 10:48:25;;;;;;;8.07;3.58;;;;;;;24.59;53.19;100000.00;4995332;28;20116;-74
2021/07/03 10:50:55;;;;;;;4.85;3.83;;;;;;;24.93;52.65;99999.41;4995512;28;20101;-76
2021/07/03 10:53:30;;;;;;;4.93;3.80;;;;;;;25.00;51.20;100004.94;4995544;28;20424;-74
2021/07/03 10:56:09;;;;;;;6.95;3.90;;;;;;;25.26;52.83;100008.16;4995270;28;20050;-71
2021/07/03 10:58:39;;;;;;;6.40;3.67;;;;;;;25.18;52.23;99998.19;4996152;28;20097;-72
2021/07/03 11:01:09;;;;;;;6.03;3.40;;;;;;;25.11;48.54;99986.38;4995669;28;20153;-74
2021/07/03 11:03:50;;;;;;;4.07;3.20;;;;;;;25.17;49.18;99997.34;4994349;28;20780;-73
2021/07/03 11:06:21;;;;;;;5.03;3.00;;;;;;;25.16;50.59;100003.84;4995471;28;20054;-74
2021/07/03 11:08:54;;;;;;;5.43;3.17;;;;;;;25.03;50.35;100001.84;4995377;28;20047;-72
2021/07/03 11:11:20;;;;;;;4.70;3.20;;;;;;;25.03;51.06;100007.28;4995737;28;20120;-73
2021/07/03 11:13:53;;;;;;;4.53;3.30;;;;;;;25.01;50.35;99994.88;4995183;28;20460;-72
2021/07/03 11:16:20;;;;;;;5.10;3.30;;;;;;;24.91;49.00;99998.78;4995244;28;20058;-72
2021/07/03 11:18:48;;;;;;;6.97;3.17;;;;;;;24.91;51.15;99997.91;4995117;28;20532;-75
2021/07/03 11:21:15;;;;;;;4.03;3.22;;;;;;;24.84;51.83;99994.25;4979646;28;21090;-71
2021/07/03 11:23:42;;;;;;;6.05;3.72;;;;;;;24.70;51.90;100002.25;4975587;28;20464;-71